Time;durP1;ratioP1;P1;durP2;ratioP2;P2;SDS_P1;SDS_P2;PMS_P1;PMS_P2;Temp;Humidity;BMP_temperature;BMP_pressure;BME280_temperature;BME280_humidity;BME280_pressure;Samples;Min_cycle;Max_cycle;Signal;HPM_P1;HPM_P2
2022/11/18 00:00:18;;;;;;;3.40;3.10;;;;;;;-145.14;100.00;70583.66;5044143;28;20538;-73
2022/11/18 00:02:43;;;;;;;3.80;3.50;;;;;;;-145.14;100.00;70583.66;5074095;28;20285;-73
2022/11/18 00:05:09;;;;;;;3.60;3.30;;;;;;;-145.14;100.00;70583.66;5068843;28;20632;-72
2022/11/18 00:07:34;;;;;;;4.30;3.27;;;;;;;-145.14;100.00;70583.66;5068465;28;20293;-73
2022/11/18 00:10:00;;;;;;;3.63;3.30;;;;;;;-145.14;100.00;70583.66;5064764;28;20360;-73
2022/11/18 00:15:09;;;;;;;4.10;3.70;;;;;;;-145.14;100.00;70583.66;5065968;28;20245;-73
2022/11/18 00:17:34;;;;;;;4.40;3.37;;;;;;;-145.14;100.00;70583.66;5065398;28;20441;-72
2022/11/18 00:20:00;;;;;;;4.73;4.10;;;;;;;-145.14;100.00;70583.66;5066397;28;20242;-72
2022/11/18 00:22:25;;;;;;;4.83;4.00;;;;;;;-145.14;100.00;70583.66;5040402;28;20937;-72
2022/11/18 00:24:51;;;;;;;3.83;3.53;;;;;;;-145.14;100.00;70583.66;5055284;28;20190;-73
2022/11/18 00:27:16;;;;;;;4.27;3.70;;;;;;;-145.14;100.00;70583.66;5047791;28;20214;-73
2022/11/18 00:29:42;;;;;;;3.30;2.87;;;;;;;-145.14;100.00;70583.66;5062943;28;20662;-73
2022/11/18 00:32:07;;;;;;;3.60;3.30;;;;;;;-145.14;100.00;70583.66;5046496;28;20182;-73
2022/11/18 00:34:32;;;;;;;3.70;3.40;;;;;;;-145.14;100.00;70583.66;5045176;28;20190;-72
2022/11/18 00:36:58;;;;;;;4.80;3.60;;;;;;;-145.14;100.00;70583.66;5062572;28;20187;-73
2022/11/18 00:39:24;;;;;;;3.43;3.13;;;;;;;-145.14;100.00;70583.66;5065944;28;20271;-72
2022/11/18 00:44:34;;;;;;;4.30;3.90;;;;;;;-145.14;100.00;70583.66;5072994;28;20548;-72
2022/11/18 00:47:00;;;;;;;4.33;3.90;;;;;;;-145.14;100.00;70583.66;5070922;28;21055;-72
2022/11/18 00:49:25;;;;;;;4.40;3.63;;;;;;;-145.14;100.00;70583.66;5075647;28;20179;-73
2022/11/18 00:51:51;;;;;;;4.10;3.70;;;;;;;-145.14;100.00;70583.66;5076593;28;20256;-72
2022/11/18 00:54:16;;;;;;;5.83;3.60;;;;;;;-145.14;100.00;70583.66;5042056;28;20746;-72
2022/11/18 00:56:42;;;;;;;4.17;3.87;;;;;;;-145.14;100.00;70583.66;5072987;28;20337;-73
2022/11/18 00:59:07;;;;;;;4.27;3.87;;;;;;;-145.14;100.00;70583.66;5055001;28;20408;-73
2022/11/18 01:01:33;;;;;;;4.87;4.13;;;;;;;-145.14;100.00;70583.66;5068040;28;20195;-73
2022/11/18 01:03:59;;;;;;;4.47;4.07;;;;;;;-145.14;100.00;70583.66;5070275;28;20221;-72
2022/11/18 01:06:24;;;;;;;5.20;4.60;;;;;;;-145.14;100.00;70583.66;5073688;28;20616;-73
2022/11/18 01:08:50;;;;;;;5.07;4.57;;;;;;;-145.14;100.00;70583.66;5053106;28;20444;-73
2022/11/18 01:14:00;;;;;;;4.67;4.20;;;;;;;-145.14;100.00;70583.66;5066220;28;20292;-73
2022/11/18 01:16:26;;;;;;;6.10;5.50;;;;;;;-145.14;100.00;70583.66;5062348;28;20538;-72
2022/11/18 01:18:52;;;;;;;5.00;4.60;;;;;;;-145.14;100.00;70583.66;5052871;28;20741;-73
2022/11/18 01:21:18;;;;;;;5.70;4.83;;;;;;;-145.14;100.00;70583.66;5066462;28;20443;-73
2022/11/18 01:23:44;;;;;;;5.33;4.70;;;;;;;-145.14;100.00;70583.66;5052046;28;20562;-73
2022/11/18 01:26:11;;;;;;;6.70;4.20;;;;;;;-145.14;100.00;70583.66;5071023;28;20202;-72
2022/11/18 01:28:37;;;;;;;4.67;4.23;;;;;;;-145.14;100.00;70583.66;5067816;28;20536;-72
2022/11/18 01:31:05;;;;;;;5.07;4.47;;;;;;;-145.14;100.00;70583.66;5050072;28;20844;-73
2022/11/18 01:33:30;;;;;;;5.23;4.67;;;;;;;-145.14;100.00;70583.66;5073255;28;20471;-73
2022/11/18 01:35:56;;;;;;;5.70;5.00;;;;;;;-145.14;100.00;70583.66;5069340;28;20453;-73
2022/11/18 01:38:21;;;;;;;4.67;4.27;;;;;;;-145.14;100.00;70583.66;5064917;28;20189;-73
2022/11/18 01:40:47;;;;;;;5.10;4.60;;;;;;;-145.14;100.00;70583.66;5056182;28;20182;-73
2022/11/18 01:43:15;;;;;;;5.30;4.80;;;;;;;-145.14;100.00;70583.66;5052424;28;20598;-73
2022/11/18 01:45:42;;;;;;;4.87;4.37;;;;;;;-145.14;100.00;70583.66;5051684;28;20684;-73
2022/11/18 01:48:22;;;;;;;5.53;4.87;;;;;;;-145.14;100.00;70583.66;5067345;28;20519;-73
2022/11/18 01:51:05;;;;;;;5.80;4.97;;;;;;;-145.14;100.00;70583.66;5068778;28;20511;-72
2022/11/18 01:53:34;;;;;;;6.37;5.03;;;;;;;-145.14;100.00;70583.66;5069316;28;20465;-72
2022/11/18 01:56:02;;;;;;;5.53;4.70;;;;;;;-145.14;100.00;70583.66;5054370;28;21650;-72
2022/11/18 01:58:37;;;;;;;5.87;5.27;;;;;;;-145.14;100.00;70583.66;5067179;28;20522;-72
2022/11/18 02:01:04;;;;;;;6.30;5.67;;;;;;;-145.14;100.00;70583.66;5067497;28;20451;-72
2022/11/18 02:03:31;;;;;;;5.30;4.80;;;;;;;-145.14;100.00;70583.66;5065943;28;20490;-72
2022/11/18 02:05:58;;;;;;;5.60;5.10;;;;;;;-145.14;100.00;70583.66;5064284;28;20479;-72
2022/11/18 02:08:24;;;;;;;7.10;5.90;;;;;;;-145.14;100.00;70583.66;5062760;28;20460;-73
2022/11/18 02:10:50;;;;;;;7.13;6.10;;;;;;;-145.14;100.00;70583.66;5045070;28;20440;-72
2022/11/18 02:13:17;;;;;;;7.70;5.90;;;;;;;-145.14;100.00;70583.66;5063620;28;20463;-72
2022/11/18 02:16:03;;;;;;;7.63;6.40;;;;;;;-145.14;100.00;70583.66;5070741;28;20191;-72
2022/11/18 02:18:38;;;;;;;7.60;6.80;;;;;;;-145.14;100.00;70583.66;5069962;28;20432;-73
2022/11/18 02:21:20;;;;;;;8.90;6.60;;;;;;;-145.14;100.00;70583.66;5070445;28;20509;-72
2022/11/18 02:24:09;;;;;;;8.40;6.40;;;;;;;-145.14;100.00;70583.66;5046869;28;20497;-72
2022/11/18 02:26:49;;;;;;;8.60;6.17;;;;;;;-145.14;100.00;70583.66;5058811;28;20472;-72
2022/11/18 02:29:19;;;;;;;8.57;6.70;;;;;;;-145.14;100.00;70583.66;5064945;28;20479;-73
2022/11/18 02:31:59;;;;;;;8.30;7.20;;;;;;;-145.14;100.00;70583.66;5055535;28;20509;-73
2022/11/18 02:34:31;;;;;;;9.47;7.27;;;;;;;-145.14;100.00;70583.66;5067130;28;20495;-73
2022/11/18 02:37:05;;;;;;;10.03;6.17;;;;;;;-145.14;100.00;70583.66;5066392;28;20915;-72
2022/11/18 02:39:35;;;;;;;8.20;6.30;;;;;;;-145.14;100.00;70583.66;5050399;28;20440;-73
2022/11/18 02:42:06;;;;;;;9.03;7.37;;;;;;;-145.14;100.00;70583.66;5066345;28;20499;-73
2022/11/18 02:44:36;;;;;;;8.20;7.00;;;;;;;-145.14;100.00;70583.66;5068917;28;20485;-73
2022/11/18 02:47:07;;;;;;;9.30;7.27;;;;;;;-145.14;100.00;70583.66;5046840;28;20464;-73
2022/11/18 02:49:40;;;;;;;9.03;7.27;;;;;;;-145.14;100.00;70583.66;5065746;28;20540;-73
2022/11/18 02:52:09;;;;;;;6.97;6.27;;;;;;;-145.14;100.00;70583.66;5055545;28;20972;-73
2022/11/18 02:54:38;;;;;;;10.00;6.57;;;;;;;-145.14;100.00;70583.66;5050565;28;20441;-73
2022/11/18 02:57:04;;;;;;;8.23;6.90;;;;;;;-145.14;100.00;70583.66;5064479;28;21469;-72
2022/11/18 02:59:29;;;;;;;9.10;7.50;;;;;;;-145.14;100.00;70583.66;5049720;28;20456;-73
2022/11/18 03:01:55;;;;;;;8.87;7.30;;;;;;;-145.14;100.00;70583.66;5067335;28;20440;-72
2022/11/18 03:04:23;;;;;;;8.07;6.33;;;;;;;-145.14;100.00;70583.66;5067374;28;20213;-72
2022/11/18 03:07:00;;;;;;;10.20;7.63;;;;;;;-145.14;100.00;70583.66;5067369;28;20235;-72
2022/11/18 03:09:35;;;;;;;7.60;6.80;;;;;;;-145.14;100.00;70583.66;5063195;28;20439;-72
2022/11/18 03:12:18;;;;;;;7.97;6.70;;;;;;;-145.14;100.00;70583.66;5065359;28;20459;-72
2022/11/18 03:14:50;;;;;;;7.70;6.97;;;;;;;-145.14;100.00;70583.66;5062742;28;20450;-72
2022/11/18 03:17:23;;;;;;;9.30;7.13;;;;;;;-145.14;100.00;70583.66;5065535;28;20475;-73
2022/11/18 03:20:17;;;;;;;9.50;6.70;;;;;;;-145.14;100.00;70583.66;5068177;28;20445;-73
2022/11/18 03:22:56;;;;;;;8.57;6.57;;;;;;;-145.14;100.00;70583.66;5046841;28;20460;-73
2022/11/18 03:25:34;;;;;;;7.60;6.70;;;;;;;-145.14;100.00;70583.66;5066496;28;20429;-72
2022/11/18 03:28:17;;;;;;;8.50;7.10;;;;;;;-145.14;100.00;70583.66;5063284;28;20537;-73
2022/11/18 03:30:53;;;;;;;8.37;6.13;;;;;;;-145.14;100.00;70583.66;5071140;28;20941;-73
2022/11/18 03:33:23;;;;;;;7.20;6.13;;;;;;;-145.14;100.00;70583.66;5048903;28;20898;-73
2022/11/18 03:35:51;;;;;;;6.97;6.27;;;;;;;-145.14;100.00;70583.66;5069502;28;20933;-73
2022/11/18 03:38:23;;;;;;;6.57;5.53;;;;;;;-145.14;100.00;70583.66;5049097;28;20453;-73
2022/11/18 03:40:54;;;;;;;7.10;6.37;;;;;;;-145.14;100.00;70583.66;5068405;28;20475;-73
2022/11/18 03:43:26;;;;;;;8.93;6.50;;;;;;;-145.14;100.00;70583.66;5067450;28;20466;-73
2022/11/18 03:46:03;;;;;;;6.43;5.80;;;;;;;-145.14;100.00;70583.66;5068082;28;20463;-72
2022/11/18 03:48:34;;;;;;;6.47;5.80;;;;;;;-145.14;100.00;70583.66;5068828;28;21522;-73
2022/11/18 03:51:10;;;;;;;6.03;5.43;;;;;;;-145.14;100.00;70583.66;5072610;28;20440;-72
2022/11/18 03:53:42;;;;;;;6.10;5.30;;;;;;;-145.14;100.00;70583.66;5073410;28;20521;-73
2022/11/18 03:56:24;;;;;;;7.20;5.90;;;;;;;-145.14;100.00;70583.66;5069316;28;20832;-73
2022/11/18 03:58:58;;;;;;;5.70;5.10;;;;;;;-145.14;100.00;70583.66;5068783;28;20945;-72
2022/11/18 04:01:34;;;;;;;6.60;5.37;;;;;;;-145.14;100.00;70583.66;5067511;28;20428;-73
2022/11/18 04:03:59;;;;;;;7.87;5.53;;;;;;;-145.14;100.00;70583.66;5080009;22;20504;-69
2022/11/18 04:06:28;;;;;;;7.20;5.37;;;;;;;-145.14;100.00;70583.66;5053580;28;20471;-69
2022/11/18 04:08:58;;;;;;;5.93;5.33;;;;;;;-145.14;100.00;70583.66;5055773;28;20187;-69
2022/11/18 04:14:19;;;;;;;6.00;5.03;;;;;;;-145.14;100.00;70583.66;5060617;28;20541;-70
2022/11/18 04:16:50;;;;;;;6.20;4.77;;;;;;;-145.14;100.00;70583.66;5055066;28;20444;-69
2022/11/18 04:19:15;;;;;;;7.00;5.97;;;;;;;-145.14;100.00;70583.66;5054182;28;20527;-70
2022/11/18 04:21:41;;;;;;;7.93;5.73;;;;;;;-145.14;100.00;70583.66;5063089;28;20444;-70
2022/11/18 04:24:06;;;;;;;5.47;4.80;;;;;;;-145.14;100.00;70583.66;5061480;28;20221;-70
2022/11/18 04:26:32;;;;;;;6.10;4.97;;;;;;;-145.14;100.00;70583.66;5062128;28;20199;-70
2022/11/18 04:28:57;;;;;;;12.00;5.17;;;;;;;-145.14;100.00;70583.66;5054230;28;20229;-70
2022/11/18 04:31:23;;;;;;;6.40;5.80;;;;;;;-145.14;100.00;70583.66;5063312;28;20552;-70
2022/11/18 04:33:48;;;;;;;7.33;5.23;;;;;;;-145.14;100.00;70583.66;5065987;28;20248;-69
2022/11/18 04:36:14;;;;;;;6.70;5.30;;;;;;;-145.14;100.00;70583.66;5061398;28;20670;-70
2022/11/18 04:38:39;;;;;;;6.10;4.63;;;;;;;-145.14;100.00;70583.66;5057067;28;20268;-70
2022/11/18 04:41:05;;;;;;;7.43;5.57;;;;;;;-145.14;100.00;70583.66;5060211;28;20602;-70
2022/11/18 04:43:30;;;;;;;6.23;5.43;;;;;;;-145.14;100.00;70583.66;5067998;28;20215;-70
2022/11/18 04:45:55;;;;;;;5.30;4.70;;;;;;;-145.14;100.00;70583.66;5061334;28;20194;-70
2022/11/18 04:48:21;;;;;;;6.83;6.13;;;;;;;-145.14;100.00;70583.66;5057780;28;20240;-69
2022/11/18 04:50:46;;;;;;;6.53;5.40;;;;;;;-145.14;100.00;70583.66;5064330;28;20195;-69
2022/11/18 04:53:12;;;;;;;6.10;5.50;;;;;;;-145.14;100.00;70583.66;5061688;28;20380;-69
2022/11/18 04:55:37;;;;;;;8.17;5.90;;;;;;;-145.14;100.00;70583.66;5063443;28;20187;-70
2022/11/18 04:58:02;;;;;;;6.70;5.73;;;;;;;-145.14;100.00;70583.66;5057039;28;20644;-70
2022/11/18 05:00:28;;;;;;;7.10;6.10;;;;;;;-145.14;100.00;70583.66;5064175;28;20196;-70
2022/11/18 05:02:54;;;;;;;8.90;6.13;;;;;;;-145.14;100.00;70583.66;5064189;28;20230;-69
2022/11/18 05:05:19;;;;;;;8.50;5.60;;;;;;;-145.14;100.00;70583.66;5066418;28;20633;-70
2022/11/18 05:07:45;;;;;;;7.40;6.07;;;;;;;-145.14;100.00;70583.66;5057715;28;20222;-69
2022/11/18 05:10:10;;;;;;;7.60;5.87;;;;;;;-145.14;100.00;70583.66;5056541;28;20266;-69
2022/11/18 05:12:48;;;;;;;10.07;6.50;;;;;;;-145.14;100.00;70583.66;5058474;28;20219;-69
2022/11/18 05:15:17;;;;;;;6.60;5.80;;;;;;;-145.14;100.00;70583.66;5061368;28;20191;-69
2022/11/18 05:17:42;;;;;;;10.33;6.10;;;;;;;-145.14;100.00;70583.66;5056479;28;20447;-70
2022/11/18 05:20:08;;;;;;;8.73;5.50;;;;;;;-145.14;100.00;70583.66;5057968;28;20448;-69
2022/11/18 05:22:34;;;;;;;6.07;5.47;;;;;;;-145.14;100.00;70583.66;5060791;28;20213;-69
2022/11/18 05:25:00;;;;;;;6.80;5.33;;;;;;;-145.14;100.00;70583.66;5062152;28;20448;-69
2022/11/18 05:27:25;;;;;;;6.80;5.53;;;;;;;-145.14;100.00;70583.66;5061354;28;20210;-70
2022/11/18 05:29:51;;;;;;;7.53;5.17;;;;;;;-145.14;100.00;70583.66;5059158;28;20632;-70
2022/11/18 05:32:16;;;;;;;6.07;5.03;;;;;;;-145.14;100.00;70583.66;5055780;28;20215;-70
2022/11/18 05:34:42;;;;;;;8.67;6.40;;;;;;;-145.14;100.00;70583.66;5059401;28;20445;-69
2022/11/18 05:37:08;;;;;;;5.53;5.00;;;;;;;-145.14;100.00;70583.66;5055446;28;20187;-69
2022/11/18 05:39:33;;;;;;;6.77;5.47;;;;;;;-145.14;100.00;70583.66;5058086;28;20202;-70
2022/11/18 05:44:44;;;;;;;8.53;5.87;;;;;;;-145.14;100.00;70583.66;5062775;28;20182;-69
2022/11/18 05:47:09;;;;;;;7.73;5.83;;;;;;;-145.14;100.00;70583.66;5051481;28;20480;-69
2022/11/18 05:49:35;;;;;;;8.10;5.67;;;;;;;-145.14;100.00;70583.66;5062508;28;20437;-69
2022/11/18 05:52:01;;;;;;;6.40;5.70;;;;;;;-145.14;100.00;70583.66;5061259;28;20194;-70
2022/11/18 05:54:26;;;;;;;7.40;6.20;;;;;;;-145.14;100.00;70583.66;5057075;28;20206;-69
2022/11/18 05:56:52;;;;;;;9.97;6.80;;;;;;;-145.14;100.00;70583.66;5058462;28;20211;-69
2022/11/18 05:59:18;;;;;;;7.57;6.50;;;;;;;-145.14;100.00;70583.66;5062688;28;20437;-70
2022/11/18 06:01:48;;;;;;;10.17;6.90;;;;;;;-145.14;100.00;70583.66;5060102;28;20615;-69
2022/11/18 06:04:27;;;;;;;9.73;6.37;;;;;;;-145.14;100.00;70583.66;5061739;28;20865;-69
2022/11/18 06:06:58;;;;;;;10.73;7.47;;;;;;;-145.14;100.00;70583.66;5061306;28;20480;-70
2022/11/18 06:09:27;;;;;;;9.80;7.30;;;;;;;-145.14;100.00;70583.66;5055886;28;20433;-69
2022/11/18 06:11:58;;;;;;;9.60;7.10;;;;;;;-145.14;100.00;70583.66;5054613;28;20437;-69
2022/11/18 06:14:35;;;;;;;11.37;7.90;;;;;;;-145.14;100.00;70583.66;5060549;28;20453;-70
2022/11/18 06:17:07;;;;;;;10.10;7.90;;;;;;;-145.14;100.00;70583.66;5062018;28;20429;-70
2022/11/18 06:19:33;;;;;;;9.47;7.30;;;;;;;-145.14;100.00;70583.66;5058525;28;20441;-69
2022/11/18 06:21:59;;;;;;;11.53;7.40;;;;;;;-145.14;100.00;70583.66;5058264;28;20437;-70
2022/11/18 06:24:25;;;;;;;13.90;8.60;;;;;;;-145.14;100.00;70583.66;5056549;28;20488;-70
2022/11/18 06:26:51;;;;;;;11.60;7.97;;;;;;;-145.14;100.00;70583.66;5064150;28;20931;-69
2022/11/18 06:29:19;;;;;;;11.27;8.00;;;;;;;-145.14;100.00;70583.66;5067280;28;20187;-69
2022/11/18 06:31:44;;;;;;;11.90;8.63;;;;;;;-145.14;100.00;70583.66;5058616;28;20445;-69
2022/11/18 06:34:19;;;;;;;12.00;8.70;;;;;;;-145.14;100.00;70583.66;5064092;28;20468;-69
2022/11/18 06:36:44;;;;;;;11.60;9.00;;;;;;;-145.14;100.00;70583.66;5068369;28;20237;-70
2022/11/18 06:39:10;;;;;;;13.17;8.80;;;;;;;-145.14;100.00;70583.66;5062663;28;20441;-70
2022/11/18 06:41:35;;;;;;;11.20;8.80;;;;;;;-145.14;100.00;70583.66;5065093;28;20218;-70
2022/11/18 06:44:01;;;;;;;12.37;9.10;;;;;;;-145.14;100.00;70583.66;5063070;28;20237;-70
2022/11/18 06:49:10;;;;;;;14.43;10.27;;;;;;;-145.14;100.00;70583.66;5057317;28;20221;-68
2022/11/18 06:51:36;;;;;;;13.10;9.67;;;;;;;-145.14;100.00;70583.66;5062828;28;20456;-68
2022/11/18 06:54:01;;;;;;;13.83;9.70;;;;;;;-145.14;100.00;70583.66;5067084;28;20650;-68
2022/11/18 06:56:27;;;;;;;11.53;9.80;;;;;;;-145.14;100.00;70583.66;5065419;28;20187;-68
2022/11/18 06:58:55;;;;;;;14.37;10.07;;;;;;;-145.14;100.00;70583.66;5065341;28;20275;-68
2022/11/18 07:01:25;;;;;;;12.80;9.30;;;;;;;-145.14;100.00;70583.66;5063715;28;20270;-69
2022/11/18 07:03:51;;;;;;;11.80;9.30;;;;;;;-145.14;100.00;70583.66;5059017;28;20464;-68
2022/11/18 07:06:21;;;;;;;13.13;10.47;;;;;;;-145.14;100.00;70583.66;5056321;28;20542;-68
2022/11/18 07:08:50;;;;;;;14.73;10.20;;;;;;;-145.14;100.00;70583.66;5063930;28;20979;-69
2022/11/18 07:11:22;;;;;;;17.30;12.30;;;;;;;-145.14;100.00;70583.66;5066767;28;20448;-68
2022/11/18 07:13:47;;;;;;;14.00;10.60;;;;;;;-145.14;100.00;70583.66;5066191;28;20464;-68
2022/11/18 07:16:19;;;;;;;13.43;11.20;;;;;;;-145.14;100.00;70583.66;5067342;28;20426;-71
2022/11/18 07:18:46;;;;;;;14.23;10.63;;;;;;;-145.14;100.00;70583.66;5055936;28;20279;-70
2022/11/18 07:21:14;;;;;;;15.13;11.13;;;;;;;-145.14;100.00;70583.66;5063155;28;20491;-69
2022/11/18 07:23:40;;;;;;;17.07;12.37;;;;;;;-145.14;100.00;70583.66;5064687;28;20445;-69
2022/11/18 07:26:06;;;;;;;15.70;12.00;;;;;;;-145.14;100.00;70583.66;5064892;28;20479;-69
2022/11/18 07:28:32;;;;;;;15.43;11.70;;;;;;;-145.14;100.00;70583.66;5065744;28;21168;-70
2022/11/18 07:31:02;;;;;;;16.63;11.90;;;;;;;-145.14;100.00;70583.66;5064982;28;20463;-70
2022/11/18 07:33:28;;;;;;;17.10;12.20;;;;;;;-145.14;100.00;70583.66;5061773;28;20942;-70
2022/11/18 07:35:53;;;;;;;15.50;12.00;;;;;;;-145.14;100.00;70583.66;5062253;28;20445;-69
2022/11/18 07:38:19;;;;;;;14.27;11.20;;;;;;;-145.14;100.00;70583.66;5062458;28;20433;-69
2022/11/18 07:40:44;;;;;;;17.53;11.53;;;;;;;-145.14;100.00;70583.66;5060811;28;20187;-69
2022/11/18 07:43:10;;;;;;;15.20;10.90;;;;;;;-145.14;100.00;70583.66;5061992;28;20238;-69
2022/11/18 07:45:35;;;;;;;18.50;11.50;;;;;;;-145.14;100.00;70583.66;5064736;28;20186;-69
2022/11/18 07:48:01;;;;;;;14.23;11.40;;;;;;;-145.14;100.00;70583.66;5060630;28;20209;-69
2022/11/18 07:50:27;;;;;;;18.60;11.10;;;;;;;-145.14;100.00;70583.66;5062795;28;20186;-69
2022/11/18 07:52:55;;;;;;;17.33;11.60;;;;;;;-145.14;100.00;70583.66;5064820;28;20210;-69
2022/11/18 07:55:20;;;;;;;14.63;11.03;;;;;;;-145.14;100.00;70583.66;5080612;28;20191;-70
2022/11/18 07:57:46;;;;;;;14.83;11.37;;;;;;;-145.14;100.00;70583.66;5061208;28;20943;-70
2022/11/18 08:00:12;;;;;;;14.93;10.67;;;;;;;-145.14;100.00;70583.66;5065664;28;20182;-69
2022/11/18 08:02:37;;;;;;;12.90;10.67;;;;;;;-145.14;100.00;70583.66;5059247;28;20252;-70
2022/11/18 08:05:03;;;;;;;13.77;11.37;;;;;;;-145.14;100.00;70583.66;5058432;28;20429;-69
2022/11/18 08:07:28;;;;;;;14.57;11.00;;;;;;;-145.14;100.00;70583.66;5053332;28;21041;-69
2022/11/18 08:09:54;;;;;;;14.33;10.60;;;;;;;-145.14;100.00;70583.66;5055768;28;20210;-70
2022/11/18 08:12:19;;;;;;;15.27;10.70;;;;;;;-145.14;100.00;70583.66;5062688;28;20179;-70
2022/11/18 08:14:45;;;;;;;13.20;10.80;;;;;;;-145.14;100.00;70583.66;5064738;28;20186;-70
2022/11/18 08:17:11;;;;;;;14.57;11.70;;;;;;;-145.14;100.00;70583.66;5063686;28;20274;-69
2022/11/18 08:19:36;;;;;;;14.07;11.70;;;;;;;-145.14;100.00;70583.66;5059563;28;20675;-69
2022/11/18 08:22:01;;;;;;;15.50;11.57;;;;;;;-145.14;100.00;70583.66;5061609;28;20183;-69
2022/11/18 08:24:27;;;;;;;12.80;10.80;;;;;;;-145.14;100.00;70583.66;5062517;28;20884;-70
2022/11/18 08:26:52;;;;;;;12.87;11.13;;;;;;;-145.14;100.00;70583.66;5065652;28;20244;-70
2022/11/18 08:29:18;;;;;;;15.03;11.60;;;;;;;-145.14;100.00;70583.66;5064962;28;20667;-69
2022/11/18 08:31:44;;;;;;;14.73;11.90;;;;;;;-145.14;100.00;70583.66;5064620;28;20179;-69
2022/11/18 08:34:09;;;;;;;14.27;11.57;;;;;;;-145.14;100.00;70583.66;5066290;28;20238;-68
2022/11/18 08:36:36;;;;;;;15.13;12.20;;;;;;;-145.14;100.00;70583.66;5060496;28;20244;-69
2022/11/18 08:39:05;;;;;;;15.27;11.20;;;;;;;-145.14;100.00;70583.66;5061029;28;20196;-68
2022/11/18 08:41:40;;;;;;;14.50;12.33;;;;;;;-145.14;100.00;70583.66;5059259;28;20419;-69
2022/11/18 08:44:09;;;;;;;15.90;11.47;;;;;;;-145.14;100.00;70583.66;5063722;28;20445;-69
2022/11/18 08:46:34;;;;;;;16.90;12.97;;;;;;;-145.14;100.00;70583.66;5062039;28;20496;-68
2022/11/18 08:49:00;;;;;;;17.87;12.20;;;;;;;-145.14;100.00;70583.66;5060294;28;20913;-69
2022/11/18 08:51:26;;;;;;;14.60;11.80;;;;;;;-145.14;100.00;70583.66;5061854;28;20184;-68
2022/11/18 08:53:52;;;;;;;15.57;11.97;;;;;;;-145.14;100.00;70583.66;5064524;28;20202;-69
2022/11/18 08:56:19;;;;;;;15.30;12.63;;;;;;;-145.14;100.00;70583.66;5064748;28;20425;-69
2022/11/18 08:58:46;;;;;;;19.70;13.13;;;;;;;-145.14;100.00;70583.66;5064613;28;20647;-69
2022/11/18 09:01:11;;;;;;;18.90;13.67;;;;;;;-145.14;100.00;70583.66;5061075;28;20998;-69
2022/11/18 09:03:37;;;;;;;14.20;12.40;;;;;;;-145.14;100.00;70583.66;5063587;28;20453;-69
2022/11/18 09:06:11;;;;;;;13.93;12.23;;;;;;;-145.14;100.00;70583.66;5062834;28;20251;-68
2022/11/18 09:08:37;;;;;;;17.00;13.23;;;;;;;-145.14;100.00;70583.66;5062529;28;20235;-68
2022/11/18 09:11:14;;;;;;;17.10;13.30;;;;;;;-145.14;100.00;70583.66;5061622;28;20440;-68
2022/11/18 09:13:40;;;;;;;15.80;12.83;;;;;;;-145.14;100.00;70583.66;5064644;28;20683;-69
2022/11/18 09:16:06;;;;;;;18.97;13.37;;;;;;;-145.14;100.00;70583.66;5066449;28;20535;-69
2022/11/18 09:18:32;;;;;;;21.23;13.27;;;;;;;-145.14;100.00;70583.66;5061763;28;20437;-68
2022/11/18 09:21:00;;;;;;;15.47;12.53;;;;;;;-145.14;100.00;70583.66;5066147;28;20476;-68
2022/11/18 09:23:26;;;;;;;19.50;15.03;;;;;;;-145.14;100.00;70583.66;5068840;28;20192;-69
2022/11/18 09:26:05;;;;;;;15.03;12.33;;;;;;;-145.14;100.00;70583.66;5066967;28;20421;-69
2022/11/18 09:28:31;;;;;;;17.40;12.70;;;;;;;-145.14;100.00;70583.66;5067828;28;20230;-69
2022/11/18 09:30:56;;;;;;;17.23;13.40;;;;;;;-145.14;100.00;70583.66;5066632;28;20503;-69
2022/11/18 09:33:22;;;;;;;17.33;13.17;;;;;;;-145.14;100.00;70583.66;5064643;28;20989;-69
2022/11/18 09:35:48;;;;;;;18.90;13.70;;;;;;;-145.14;100.00;70583.66;5066102;28;20559;-68
2022/11/18 09:38:14;;;;;;;15.70;13.40;;;;;;;-145.14;100.00;70583.66;5067479;28;20424;-69
2022/11/18 09:41:33;;;;;;;18.53;13.50;;;;;;;-145.14;100.00;70583.66;5064737;28;20215;-69
2022/11/18 09:44:13;;;;;;;16.57;13.17;;;;;;;-145.14;100.00;70583.66;4987093;28;20473;-68
2022/11/18 09:46:54;;;;;;;17.93;13.50;;;;;;;-145.14;100.00;70583.66;5067769;28;20484;-69
2022/11/18 09:49:37;;;;;;;16.47;13.07;;;;;;;-145.14;100.00;70583.66;5064886;28;20452;-69
2022/11/18 09:52:15;;;;;;;15.47;12.50;;;;;;;-145.14;100.00;70583.66;5063085;28;20437;-69
2022/11/18 09:54:41;;;;;;;15.93;12.73;;;;;;;-145.14;100.00;70583.66;5065540;28;20425;-69
2022/11/18 09:57:14;;;;;;;15.33;12.47;;;;;;;-145.14;100.00;70583.66;5065646;28;20506;-69
2022/11/18 09:59:41;;;;;;;16.50;13.60;;;;;;;-145.14;100.00;70583.66;5059186;28;20446;-69
2022/11/18 10:02:12;;;;;;;14.17;11.87;;;;;;;-145.14;100.00;70583.66;5064065;28;20452;-69
2022/11/18 10:04:38;;;;;;;14.83;11.83;;;;;;;-145.14;100.00;70583.66;5041715;22;20564;-72
2022/11/18 10:07:19;;;;;;;13.97;11.73;;;;;;;-145.14;100.00;70583.66;5024075;28;20462;-72
2022/11/18 10:09:47;;;;;;;13.37;10.87;;;;;;;-145.14;100.00;70583.66;5011311;28;20467;-72
2022/11/18 10:12:37;;;;;;;14.10;11.23;;;;;;;-145.14;100.00;70583.66;5010564;28;20952;-72
2022/11/18 10:15:35;;;;;;;13.10;11.43;;;;;;;-145.14;100.00;70583.66;5004373;28;20475;-72
2022/11/18 10:18:19;;;;;;;12.30;10.83;;;;;;;-145.14;100.00;70583.66;4962703;28;20428;-72
2022/11/18 10:21:07;;;;;;;16.50;12.03;;;;;;;-145.14;100.00;70583.66;4989338;28;20444;-72
2022/11/18 10:23:41;;;;;;;14.07;11.63;;;;;;;-145.14;100.00;70583.66;5006627;28;20456;-72
2022/11/18 10:26:07;;;;;;;13.40;11.43;;;;;;;-145.14;100.00;70583.66;5005867;28;20492;-72
2022/11/18 10:28:32;;;;;;;13.77;11.77;;;;;;;-145.14;100.00;70583.66;5004614;28;20439;-72
2022/11/18 10:31:10;;;;;;;13.93;11.53;;;;;;;-145.14;100.00;70583.66;5002239;28;20182;-72
2022/11/18 10:33:36;;;;;;;17.00;12.77;;;;;;;-145.14;100.00;70583.66;5005343;28;20221;-72
2022/11/18 10:36:10;;;;;;;14.87;12.43;;;;;;;-145.14;100.00;70583.66;5006690;28;20440;-72
2022/11/18 10:38:36;;;;;;;17.30;12.50;;;;;;;-145.14;100.00;70583.66;4986762;28;20447;-72
2022/11/18 10:41:05;;;;;;;17.07;13.30;;;;;;;-145.14;100.00;70583.66;5007766;28;20420;-72
2022/11/18 10:43:55;;;;;;;17.10;12.63;;;;;;;-145.14;100.00;70583.66;4992382;28;20205;-72
2022/11/18 10:46:28;;;;;;;16.57;12.83;;;;;;;-145.14;100.00;70583.66;5003700;28;20430;-72
2022/11/18 10:49:09;;;;;;;16.83;12.60;;;;;;;-145.14;100.00;70583.66;5001723;28;20475;-72
2022/11/18 10:51:42;;;;;;;15.60;12.63;;;;;;;-145.14;100.00;70583.66;5005406;28;20435;-72
2022/11/18 10:54:14;;;;;;;15.97;13.00;;;;;;;-145.14;100.00;70583.66;5002567;28;20543;-72
2022/11/18 10:56:56;;;;;;;15.10;11.80;;;;;;;-145.14;100.00;70583.66;5009324;28;20480;-71
2022/11/18 10:59:30;;;;;;;13.93;12.00;;;;;;;-145.14;100.00;70583.66;5008069;28;20412;-71
2022/11/18 11:02:02;;;;;;;16.80;12.87;;;;;;;-145.14;100.00;70583.66;4992833;28;20464;-72
2022/11/18 11:04:29;;;;;;;15.20;12.30;;;;;;;-145.14;100.00;70583.66;5008355;28;20550;-71
2022/11/18 11:06:57;;;;;;;14.77;11.77;;;;;;;-145.14;100.00;70583.66;4992244;28;20566;-72
2022/11/18 11:09:27;;;;;;;15.90;12.83;;;;;;;-145.14;100.00;70583.66;5007815;28;20436;-72
2022/11/18 11:12:12;;;;;;;15.80;12.70;;;;;;;-145.14;100.00;70583.66;5000788;28;21929;-71
2022/11/18 11:15:12;;;;;;;14.60;12.47;;;;;;;-145.14;100.00;70583.66;4991019;28;20598;-72
2022/11/18 11:20:50;;;;;;;14.23;12.13;;;;;;;-145.14;100.00;70583.66;5009274;28;20849;-72
2022/11/18 11:23:15;;;;;;;15.50;13.43;;;;;;;-145.14;100.00;70583.66;5008008;28;20452;-74
2022/11/18 11:26:02;;;;;;;16.90;13.93;;;;;;;-145.14;100.00;70583.66;5004687;28;20448;-74
2022/11/18 11:28:29;;;;;;;22.50;14.60;;;;;;;-145.14;100.00;70583.66;4988016;28;20259;-74
2022/11/18 11:31:13;;;;;;;15.33;12.93;;;;;;;-145.14;100.00;70583.66;5008668;28;20486;-73